カイエンヌ の空港の天気 - METARとTAF

カイエンヌ/ロシャンボー空港 ( SOCA / CAY ) - フランス領ギアナ カイエンヌ
飛行場実況気象(Metar)
観測時間02/21 14:30 GFT (02/21 17:30 UTC)
風向・風速東北東 7m/s
視程10km以上
天気現象
全天の8割程度の雲 雲底高度 850m
全天の8割程度の雲 雲底高度 1220m
全天の8割程度の雲 雲底高度 1830m
気温28℃
湿度70%
気圧1013hPa
METARSOCA 211730Z AUTO 06014KT 9999 BKN028/// BKN040/// BKN060/// 28/22 Q1013 NOSIG
過去の天気等 Google飛行場航空写真 Wunderground天気予報

過去48時間のMETAR

飛行場予報(TAF)
発表時間: 2/21 07:00 GFT (2/21 10:00 UTC)
予報対象時間: 21日9時 GFT ~ 22日9時 GFT
風向・風速北東 7m/s
視程10km以上
全天の4割程度の雲 雲底高度 790m
21日21時 GFT ~ 21日23時 GFT に徐々に
風向・風速不定 2m/s
22日5時 GFT ~ 22日9時 GFT に徐々に
風向・風速東北東 7m/s
TAF SOCA 211000Z 2112/2212 05014KT 9999 SCT026
BECMG 2200/2202 VRB03KT
BECMG 2208/2212 06014KT